createdAt,value
2023-12-01T00:00:21.137Z,2.94
2023-12-01T00:02:47.777Z,3.15
2023-12-01T00:05:14.448Z,3.29
2023-12-01T00:07:45.310Z,2.98
2023-12-01T00:10:12.406Z,3.45
2023-12-01T00:12:39.015Z,3.31
2023-12-01T00:15:06.796Z,3.50
2023-12-01T00:17:33.245Z,3.55
2023-12-01T00:19:59.896Z,3.70
2023-12-01T00:22:26.631Z,3.66
2023-12-01T00:24:54.472Z,2.87
2023-12-01T00:27:21.034Z,3.25
2023-12-01T00:29:47.481Z,2.75
2023-12-01T00:32:14.067Z,3.06
2023-12-01T00:34:40.592Z,3.02
2023-12-01T00:37:07.033Z,3.17
2023-12-01T00:39:33.476Z,3.03
2023-12-01T00:42:01.428Z,3.33
2023-12-01T00:44:27.874Z,3.38
2023-12-01T00:46:54.417Z,3.55
2023-12-01T00:49:20.932Z,3.38
2023-12-01T00:51:47.471Z,3.09
2023-12-01T00:54:14.054Z,3.04
2023-12-01T00:56:41.414Z,2.92
2023-12-01T00:59:12.649Z,3.06
2023-12-01T01:01:39.140Z,2.70
2023-12-01T01:04:05.610Z,2.98
2023-12-01T01:06:32.204Z,2.64
2023-12-01T01:08:58.778Z,2.98
2023-12-01T01:11:25.212Z,2.93
2023-12-01T01:13:51.848Z,3.08
2023-12-01T01:16:19.841Z,3.21
2023-12-01T01:18:46.360Z,3.52
2023-12-01T01:21:12.828Z,3.77
2023-12-01T01:23:39.307Z,3.98
2023-12-01T01:26:06.429Z,3.75
2023-12-01T01:28:32.883Z,4.03
2023-12-01T01:30:59.445Z,3.99
2023-12-01T01:33:27.201Z,3.70
2023-12-01T01:35:53.654Z,3.32
2023-12-01T01:38:20.075Z,3.51
2023-12-01T01:40:46.550Z,3.37
2023-12-01T01:43:20.224Z,3.80
2023-12-01T01:45:46.886Z,3.70
2023-12-01T01:48:13.348Z,3.69
2023-12-01T01:50:41.200Z,3.82
2023-12-01T01:53:07.770Z,3.67
2023-12-01T01:55:34.368Z,3.58
2023-12-01T01:58:02.165Z,3.53
2023-12-01T02:00:28.630Z,3.67
2023-12-01T02:02:55.116Z,3.94
2023-12-01T02:05:21.611Z,3.93
2023-12-01T02:07:49.388Z,4.11
2023-12-01T02:10:15.793Z,3.86
2023-12-01T02:12:43.549Z,3.79
2023-12-01T02:15:10.297Z,3.82
2023-12-01T02:17:36.726Z,3.84
2023-12-01T02:20:03.793Z,4.02
2023-12-01T02:22:31.679Z,3.58
2023-12-01T02:24:58.157Z,3.07
2023-12-01T02:27:24.575Z,3.51
2023-12-01T02:29:50.973Z,3.36
2023-12-01T02:32:17.366Z,3.89
2023-12-01T02:34:43.774Z,3.92
2023-12-01T02:37:10.365Z,3.71
2023-12-01T02:39:38.262Z,4.00
2023-12-01T02:42:04.990Z,3.61
2023-12-01T02:44:31.475Z,3.56
2023-12-01T02:46:57.992Z,3.36
2023-12-01T02:49:24.414Z,3.45
2023-12-01T02:51:50.855Z,3.03
2023-12-01T02:54:17.263Z,3.56
2023-12-01T02:56:45.046Z,3.73
2023-12-01T02:59:11.477Z,3.68
2023-12-01T03:01:38.061Z,3.45
2023-12-01T03:04:04.932Z,3.63
2023-12-01T03:06:31.360Z,3.32
2023-12-01T03:08:57.771Z,3.27
2023-12-01T03:11:25.491Z,3.54
2023-12-01T03:13:53.263Z,3.14
2023-12-01T03:16:19.757Z,2.91
2023-12-01T03:18:46.260Z,2.58
2023-12-01T03:21:12.688Z,2.77
2023-12-01T03:23:40.062Z,2.53
2023-12-01T03:26:06.738Z,2.37
2023-12-01T03:28:33.171Z,2.65
2023-12-01T03:31:00.902Z,2.60
2023-12-01T03:33:27.442Z,2.78
2023-12-01T03:35:53.905Z,3.24
2023-12-01T03:38:20.545Z,3.00
2023-12-01T03:40:46.960Z,3.01
2023-12-01T03:43:13.391Z,2.54
2023-12-01T03:45:39.915Z,2.90
2023-12-01T03:48:08.258Z,2.60
2023-12-01T03:50:34.660Z,2.43
2023-12-01T03:53:01.254Z,2.61
2023-12-01T03:55:27.665Z,2.33
2023-12-01T03:57:54.111Z,2.45
2023-12-01T04:00:21.224Z,2.37
2023-12-01T04:02:48.756Z,2.57
2023-12-01T04:05:17.843Z,2.75
2023-12-01T04:07:45.268Z,2.58
2023-12-01T04:10:11.983Z,2.39
2023-12-01T04:12:40.381Z,2.37
2023-12-01T04:15:07.544Z,2.90
2023-12-01T04:17:33.959Z,2.34
2023-12-01T04:20:00.412Z,2.43
2023-12-01T04:22:28.205Z,3.06
2023-12-01T04:24:54.674Z,3.03
2023-12-01T04:27:21.082Z,2.92
2023-12-01T04:29:47.477Z,3.37
2023-12-01T04:32:13.916Z,3.52
2023-12-01T04:34:40.426Z,3.48
2023-12-01T04:37:06.904Z,3.66
2023-12-01T04:39:34.630Z,3.48
2023-12-01T04:42:01.069Z,3.79
2023-12-01T04:44:27.474Z,3.72
2023-12-01T04:46:53.950Z,3.73
2023-12-01T04:49:20.537Z,3.67
2023-12-01T04:51:46.988Z,3.52
2023-12-01T04:54:13.436Z,3.69
2023-12-01T04:56:41.161Z,3.93
2023-12-01T04:59:07.554Z,3.91
2023-12-01T05:01:34.084Z,4.24
2023-12-01T05:04:00.590Z,3.82
2023-12-01T05:06:27.057Z,3.89
2023-12-01T05:08:53.556Z,4.00
2023-12-01T05:11:20.038Z,4.27
2023-12-01T05:13:49.553Z,4.34
2023-12-01T05:16:16.561Z,4.20
2023-12-01T05:18:43.143Z,4.28
2023-12-01T05:21:09.627Z,4.01
2023-12-01T05:23:36.160Z,3.52
2023-12-01T05:26:02.576Z,3.25
2023-12-01T05:28:29.068Z,3.21
2023-12-01T05:30:56.849Z,3.42
2023-12-01T05:33:25.472Z,3.71
2023-12-01T05:35:52.569Z,3.28
2023-12-01T05:38:19.050Z,3.41
2023-12-01T05:40:45.553Z,3.54
2023-12-01T05:43:12.172Z,3.16
2023-12-01T05:45:39.020Z,2.70
2023-12-01T05:48:07.498Z,3.14
2023-12-01T05:50:34.343Z,3.21
2023-12-01T05:53:02.939Z,3.15
2023-12-01T05:55:30.396Z,3.16
2023-12-01T05:57:58.141Z,3.00
2023-12-01T06:00:28.557Z,3.00
2023-12-01T06:02:55.288Z,3.40
2023-12-01T06:05:23.167Z,3.81
2023-12-01T06:07:51.095Z,3.66
2023-12-01T06:10:18.531Z,3.61
2023-12-01T06:12:48.213Z,3.52
2023-12-01T06:15:16.395Z,3.45
2023-12-01T06:17:57.790Z,3.48
2023-12-01T06:20:26.154Z,2.92
2023-12-01T06:22:59.806Z,3.32
2023-12-01T06:25:29.795Z,3.36
2023-12-01T06:27:57.603Z,3.33
2023-12-01T06:30:25.715Z,3.33
2023-12-01T06:32:52.598Z,2.70
2023-12-01T06:35:20.300Z,2.47
2023-12-01T06:37:50.466Z,2.62
2023-12-01T06:40:23.449Z,2.80
2023-12-01T06:43:13.460Z,2.99
2023-12-01T06:45:40.723Z,2.89
2023-12-01T06:48:38.123Z,2.70
2023-12-01T06:51:09.808Z,2.53
2023-12-01T06:53:37.572Z,2.61
2023-12-01T06:59:34.029Z,3.15
2023-12-01T07:02:05.885Z,2.76
2023-12-01T07:04:34.145Z,2.87
2023-12-01T07:07:12.951Z,3.06
2023-12-01T07:09:53.829Z,2.50
2023-12-01T07:12:25.786Z,2.74
2023-12-01T07:14:52.654Z,2.34
2023-12-01T07:17:19.204Z,2.17
2023-12-01T07:20:24.055Z,2.54
2023-12-01T07:22:42.678Z,2.49
2023-12-01T07:25:18.637Z,2.92
2023-12-01T07:27:47.870Z,2.91
2023-12-01T07:30:14.622Z,2.21
2023-12-01T07:32:47.260Z,2.48
2023-12-01T07:35:43.125Z,2.35
2023-12-01T07:38:09.755Z,2.13
2023-12-01T07:40:48.737Z,2.23
2023-12-01T07:43:15.160Z,2.36
2023-12-01T07:45:41.836Z,2.75
2023-12-01T07:48:08.385Z,2.95
2023-12-01T07:50:34.869Z,2.84
2023-12-01T07:53:02.004Z,2.55
2023-12-01T07:55:28.984Z,2.69
2023-12-01T07:58:00.282Z,2.42
2023-12-01T08:00:26.855Z,2.18
2023-12-01T08:02:56.747Z,2.22
2023-12-01T08:05:24.803Z,2.11
2023-12-01T08:07:57.011Z,2.05
2023-12-01T08:10:26.495Z,1.89
2023-12-01T08:12:55.321Z,2.12
2023-12-01T08:15:24.180Z,1.86
2023-12-01T08:17:54.399Z,1.85
2023-12-01T08:20:21.113Z,2.33
2023-12-01T08:22:50.246Z,2.65
2023-12-01T08:25:21.101Z,3.01
2023-12-01T08:27:47.521Z,2.23
2023-12-01T08:30:19.343Z,2.25
2023-12-01T08:33:00.641Z,2.75
2023-12-01T08:35:40.895Z,2.38
2023-12-01T08:38:36.105Z,2.35
2023-12-01T08:44:28.948Z,1.79
2023-12-01T08:47:02.889Z,1.61
2023-12-01T08:49:36.757Z,1.64
2023-12-01T08:52:06.018Z,1.07
2023-12-01T08:54:44.764Z,1.59
2023-12-01T08:57:14.733Z,1.96
2023-12-01T09:02:21.869Z,2.02
2023-12-01T09:04:50.298Z,1.88
2023-12-01T09:07:16.956Z,1.58
2023-12-01T09:09:52.098Z,2.23
2023-12-01T09:12:18.708Z,1.77
2023-12-01T09:14:59.325Z,2.06
2023-12-01T09:17:40.697Z,1.85
2023-12-01T09:23:44.597Z,2.80
2023-12-01T09:26:20.391Z,2.55
2023-12-01T09:28:51.518Z,2.79
2023-12-01T09:31:46.922Z,2.34
2023-12-01T09:34:14.070Z,1.86
2023-12-01T09:36:43.494Z,2.10
2023-12-01T09:39:11.709Z,2.46
2023-12-01T09:41:42.431Z,2.32
2023-12-01T09:44:13.739Z,1.92
2023-12-01T09:46:48.973Z,1.99
2023-12-01T09:49:19.203Z,2.10
2023-12-01T09:51:53.066Z,2.26
2023-12-01T09:54:31.600Z,2.69
2023-12-01T09:57:04.636Z,2.66
2023-12-01T09:59:35.125Z,3.09
2023-12-01T10:02:05.992Z,2.99
2023-12-01T10:04:36.414Z,2.44
2023-12-01T10:07:04.138Z,1.80
2023-12-01T10:09:33.445Z,2.33
2023-12-01T10:12:07.893Z,2.19
2023-12-01T10:14:34.825Z,2.01
2023-12-01T10:17:07.129Z,1.85
2023-12-01T10:19:44.438Z,2.41
2023-12-01T10:22:16.472Z,2.63
2023-12-01T10:24:59.891Z,2.93
2023-12-01T10:27:26.493Z,2.24
2023-12-01T10:29:53.155Z,2.59
2023-12-01T10:32:19.701Z,1.86
2023-12-01T10:34:49.114Z,2.00
2023-12-01T10:37:23.496Z,2.37
2023-12-01T10:39:55.660Z,2.72
2023-12-01T10:42:25.221Z,2.79
2023-12-01T10:44:55.324Z,2.22
2023-12-01T10:47:24.295Z,2.66
2023-12-01T10:49:51.134Z,2.40
2023-12-01T10:52:32.724Z,2.93
2023-12-01T10:55:00.837Z,3.06
2023-12-01T10:57:34.576Z,3.21
2023-12-01T11:00:04.733Z,2.82
2023-12-01T11:02:31.737Z,3.16
2023-12-01T11:05:00.375Z,3.31
2023-12-01T11:07:43.826Z,2.55
2023-12-01T11:10:22.042Z,2.97
2023-12-01T11:13:05.962Z,3.20
2023-12-01T11:15:38.855Z,2.12
2023-12-01T11:18:08.441Z,2.12
2023-12-01T11:20:37.824Z,1.99
2023-12-01T11:23:05.887Z,2.13
2023-12-01T11:25:41.846Z,2.91
2023-12-01T11:28:18.120Z,2.74
2023-12-01T11:30:59.932Z,2.81
2023-12-01T11:33:32.301Z,3.27
2023-12-01T11:36:21.796Z,2.95
2023-12-01T11:39:11.254Z,2.84
2023-12-01T11:41:40.466Z,3.07
2023-12-01T11:44:09.975Z,2.88
2023-12-01T11:46:38.937Z,3.14
2023-12-01T11:49:05.864Z,2.91
2023-12-01T11:51:32.452Z,3.32
2023-12-01T11:54:20.277Z,3.22
2023-12-01T11:56:54.614Z,3.35
2023-12-01T11:59:21.286Z,3.08
2023-12-01T12:01:47.917Z,3.30
2023-12-01T12:04:15.072Z,3.74
2023-12-01T12:06:51.005Z,3.60
2023-12-01T12:09:25.804Z,3.78
2023-12-01T12:11:53.749Z,3.58
2023-12-01T12:14:22.396Z,3.76
2023-12-01T12:16:52.919Z,3.94
2023-12-01T12:19:26.885Z,3.30
2023-12-01T12:22:00.363Z,3.60
2023-12-01T12:24:30.901Z,3.77
2023-12-01T12:26:58.912Z,3.63
2023-12-01T12:29:26.324Z,3.77
2023-12-01T12:32:31.918Z,3.46
2023-12-01T12:34:58.429Z,3.71
2023-12-01T12:37:42.825Z,3.66
2023-12-01T12:40:10.780Z,3.15
2023-12-01T12:42:44.385Z,3.75
2023-12-01T12:45:12.309Z,4.00
2023-12-01T12:47:43.129Z,4.09
2023-12-01T12:50:10.205Z,3.98
2023-12-01T12:52:36.779Z,3.71
2023-12-01T12:55:03.746Z,3.92
2023-12-01T12:57:30.403Z,3.91
2023-12-01T12:59:58.174Z,3.89
2023-12-01T13:02:24.979Z,3.72
2023-12-01T13:04:51.480Z,3.88
2023-12-01T13:07:18.626Z,3.63
2023-12-01T13:09:45.108Z,3.48
2023-12-01T13:12:11.665Z,3.14
2023-12-01T13:14:40.652Z,2.53
2023-12-01T13:17:08.546Z,2.81
2023-12-01T13:19:34.980Z,2.46
2023-12-01T13:22:01.456Z,2.47
2023-12-01T13:24:28.397Z,2.50
2023-12-01T13:26:54.996Z,2.85
2023-12-01T13:29:21.493Z,2.67
2023-12-01T13:31:48.275Z,2.65
2023-12-01T13:34:16.181Z,2.25
2023-12-01T13:36:42.918Z,2.12
2023-12-01T13:39:09.358Z,2.10
2023-12-01T13:41:36.063Z,2.57
2023-12-01T13:44:02.522Z,2.21
2023-12-01T13:46:28.983Z,2.64
2023-12-01T13:48:55.536Z,2.67
2023-12-01T13:51:23.540Z,2.58
2023-12-01T13:53:50.143Z,2.10
2023-12-01T13:56:16.722Z,2.34
2023-12-01T13:58:45.416Z,2.23
2023-12-01T14:01:14.247Z,2.50
2023-12-01T14:03:40.931Z,2.97
2023-12-01T14:06:08.135Z,2.85
2023-12-01T14:08:36.081Z,2.62
2023-12-01T14:11:03.040Z,2.90
2023-12-01T14:13:29.586Z,2.54
2023-12-01T14:15:56.156Z,2.64
2023-12-01T14:18:22.870Z,2.08
2023-12-01T14:20:49.854Z,2.12
2023-12-01T14:23:16.550Z,2.56
2023-12-01T14:25:44.419Z,2.11
2023-12-01T14:28:11.114Z,2.15
2023-12-01T14:30:37.602Z,1.98
2023-12-01T14:33:04.379Z,1.90
2023-12-01T14:35:30.908Z,1.69
2023-12-01T14:37:57.360Z,1.87
2023-12-01T14:40:23.913Z,1.92
2023-12-01T14:42:51.809Z,1.88
2023-12-01T14:45:18.664Z,1.72
2023-12-01T14:47:45.249Z,1.75
2023-12-01T14:50:11.716Z,1.58
2023-12-01T14:52:38.262Z,1.86
2023-12-01T14:55:05.885Z,2.01
2023-12-01T14:57:32.857Z,1.68
2023-12-01T15:00:00.835Z,2.38
2023-12-01T15:02:27.528Z,2.11
2023-12-01T15:04:54.151Z,2.15
2023-12-01T15:07:20.638Z,2.16
2023-12-01T15:09:47.201Z,1.67
2023-12-01T15:12:13.981Z,1.99
2023-12-01T15:14:40.740Z,2.45
2023-12-01T15:17:08.748Z,2.14
2023-12-01T15:19:35.203Z,1.74
2023-12-01T15:22:01.817Z,1.52
2023-12-01T15:24:28.356Z,1.57
2023-12-01T15:26:54.860Z,1.78
2023-12-01T15:29:24.065Z,1.80
2023-12-01T15:31:51.132Z,1.65
2023-12-01T15:34:19.123Z,1.38
2023-12-01T15:36:45.815Z,1.44
2023-12-01T15:39:12.707Z,1.50
2023-12-01T15:41:41.734Z,1.65
2023-12-01T15:44:08.393Z,1.78
2023-12-01T15:46:35.019Z,1.26
2023-12-01T15:49:01.777Z,1.76
2023-12-01T15:51:36.146Z,1.70
2023-12-01T15:54:14.326Z,1.78
2023-12-01T15:56:51.175Z,1.64
2023-12-01T15:59:17.641Z,1.63
2023-12-01T16:01:48.242Z,1.25
2023-12-01T16:04:16.461Z,1.40
2023-12-01T16:08:01.903Z,1.19
2023-12-01T16:10:59.051Z,1.42
2023-12-01T16:24:53.133Z,1.39
2023-12-01T16:43:34.611Z,1.15
2023-12-01T16:53:03.590Z,1.05
2023-12-01T17:00:05.584Z,0.93
2023-12-01T17:09:54.673Z,0.78
2023-12-01T17:13:02.863Z,0.80
2023-12-01T17:19:42.106Z,0.76
2023-12-01T17:22:30.393Z,0.94
2023-12-01T17:29:32.727Z,0.80
2023-12-01T17:33:02.991Z,1.42
2023-12-01T17:36:15.871Z,1.39
2023-12-01T17:39:08.589Z,0.80
2023-12-01T17:56:11.240Z,0.11
2023-12-01T17:58:44.180Z,0.34
2023-12-01T18:01:12.626Z,0.93
2023-12-01T18:03:45.068Z,0.99
2023-12-01T18:06:42.171Z,0.63
2023-12-01T18:09:49.840Z,1.16
2023-12-01T18:12:46.331Z,0.50
2023-12-01T18:15:40.471Z,0.82
2023-12-01T18:18:29.489Z,0.94
2023-12-01T18:21:34.583Z,1.16
2023-12-01T18:24:17.040Z,0.82
2023-12-01T18:26:47.244Z,0.79
2023-12-01T18:29:16.328Z,1.27
2023-12-01T18:31:44.379Z,1.23
2023-12-01T18:34:51.349Z,1.15
2023-12-01T18:37:32.739Z,0.88
2023-12-01T18:42:46.173Z,1.34
2023-12-01T18:45:46.493Z,0.70
2023-12-01T18:55:00.045Z,0.98
2023-12-01T18:57:26.676Z,1.02
2023-12-01T18:59:53.146Z,0.92
2023-12-01T19:02:19.764Z,0.74
2023-12-01T19:04:47.673Z,0.44
2023-12-01T19:07:14.165Z,0.93
2023-12-01T19:09:40.788Z,0.87
2023-12-01T19:12:07.591Z,0.92
2023-12-01T19:14:34.139Z,1.16
2023-12-01T19:17:00.635Z,1.15
2023-12-01T19:19:27.231Z,0.86
2023-12-01T19:21:55.085Z,1.08
2023-12-01T19:24:21.593Z,0.80
2023-12-01T19:26:48.054Z,0.66
2023-12-01T19:29:14.534Z,0.68
2023-12-01T19:31:41.155Z,0.53
2023-12-01T19:34:07.879Z,0.74
2023-12-01T19:36:41.244Z,0.44
2023-12-01T19:39:09.130Z,0.39
2023-12-01T19:41:35.675Z,1.10
2023-12-01T19:44:02.137Z,0.48
2023-12-01T19:46:28.728Z,0.66
2023-12-01T19:48:55.403Z,0.20
2023-12-01T19:51:27.007Z,0.28
2023-12-01T19:53:53.604Z,0.76
2023-12-01T19:56:21.561Z,0.99
2023-12-01T19:58:48.120Z,0.63
2023-12-01T20:01:14.603Z,0.47
2023-12-01T20:03:41.317Z,0.71
2023-12-01T20:06:08.999Z,0.95
2023-12-01T20:08:35.581Z,0.70
2023-12-01T20:11:07.316Z,0.69
2023-12-01T20:13:35.163Z,1.06
2023-12-01T20:16:01.674Z,0.62
2023-12-01T20:18:28.232Z,0.21
2023-12-01T20:20:54.973Z,0.38
2023-12-01T20:23:21.457Z,0.62
2023-12-01T20:25:47.869Z,0.55
2023-12-01T20:28:14.346Z,0.27
2023-12-01T20:30:42.214Z,0.49
2023-12-01T20:33:09.241Z,0.67
2023-12-01T20:35:40.021Z,0.91
2023-12-01T20:38:08.139Z,0.85
2023-12-01T20:40:34.657Z,0.73
2023-12-01T20:43:01.534Z,0.92
2023-12-01T20:45:28.113Z,0.93
2023-12-01T20:47:58.911Z,0.70
2023-12-01T20:50:25.387Z,0.66
2023-12-01T20:52:51.892Z,0.31
2023-12-01T20:55:18.414Z,0.25
2023-12-01T20:57:44.868Z,0.62
2023-12-01T21:00:12.618Z,0.53
2023-12-01T21:02:39.088Z,0.50
2023-12-01T21:05:10.247Z,0.17
2023-12-01T21:07:36.904Z,0.29
2023-12-01T21:10:03.746Z,0.53
2023-12-01T21:12:30.319Z,0.40
2023-12-01T21:14:59.229Z,0.25
2023-12-01T21:17:25.915Z,0.15
2023-12-01T21:19:52.339Z,0.37
2023-12-01T21:22:23.049Z,0.28
2023-12-01T21:24:49.503Z,0.35
2023-12-01T21:27:18.357Z,0.59
2023-12-01T21:29:49.984Z,0.74
2023-12-01T21:32:16.535Z,0.40
2023-12-01T21:34:43.012Z,0.62
2023-12-01T21:37:10.522Z,0.49
2023-12-01T21:39:38.320Z,0.51
2023-12-01T21:42:05.791Z,0.25
2023-12-01T21:44:32.260Z,0.93
2023-12-01T21:46:58.667Z,1.11
2023-12-01T21:49:25.286Z,1.20
2023-12-01T21:51:52.051Z,1.41
2023-12-01T21:54:18.532Z,1.03
2023-12-01T21:56:46.371Z,0.70
2023-12-01T21:59:12.832Z,0.29
2023-12-01T22:01:39.263Z,0.84
2023-12-01T22:04:05.837Z,0.09
2023-12-01T22:06:32.339Z,0.07
2023-12-01T22:08:58.817Z,0.65
2023-12-01T22:11:25.343Z,0.22
2023-12-01T22:13:53.139Z,0.71
2023-12-01T22:16:19.714Z,0.61
2023-12-01T22:18:46.569Z,0.94
2023-12-01T22:21:13.516Z,0.45
2023-12-01T22:23:39.977Z,0.80
2023-12-01T22:26:06.627Z,0.68
2023-12-01T22:28:33.652Z,0.77
2023-12-01T22:31:01.484Z,0.82
2023-12-01T22:33:27.943Z,0.89
2023-12-01T22:35:54.493Z,0.93
2023-12-01T22:38:20.903Z,1.42
2023-12-01T22:40:47.779Z,1.23
2023-12-01T22:43:14.259Z,1.38
2023-12-01T22:45:40.860Z,1.64
2023-12-01T22:48:08.788Z,1.60
2023-12-01T22:50:35.578Z,1.85
2023-12-01T22:53:02.045Z,1.63
2023-12-01T22:55:28.663Z,0.99
2023-12-01T22:57:55.082Z,0.82
2023-12-01T23:00:21.810Z,1.09
2023-12-01T23:02:48.379Z,1.33
2023-12-01T23:05:16.551Z,0.74
2023-12-01T23:07:43.396Z,0.53
2023-12-01T23:10:12.855Z,0.58
2023-12-01T23:12:39.353Z,0.64
2023-12-01T23:15:08.624Z,0.41
2023-12-01T23:17:36.614Z,0.47
2023-12-01T23:20:04.134Z,0.46
2023-12-01T23:22:31.998Z,0.58
2023-12-01T23:24:58.494Z,0.41
2023-12-01T23:27:27.173Z,0.57
2023-12-01T23:29:57.088Z,0.89
2023-12-01T23:32:23.774Z,0.89
2023-12-01T23:34:50.947Z,0.83
2023-12-01T23:37:17.515Z,0.53
2023-12-01T23:39:45.331Z,0.76
2023-12-01T23:42:11.964Z,0.94
2023-12-01T23:44:38.493Z,0.52
2023-12-01T23:47:05.332Z,0.51
2023-12-01T23:49:31.836Z,0.38
2023-12-01T23:51:58.359Z,0.50
2023-12-01T23:54:24.962Z,0.96
2023-12-01T23:56:52.818Z,0.45
2023-12-01T23:59:19.267Z,0.77
